NGTA/TRW METAR and TAF weather

Enter ICAO airport designator
Station Type Date Time Source
NGTA METAR 2024/05/28 22:00 UTC NOAA

NGTA 282200Z 08007KT 9999 FEW020 31/25 Q1010


Station Type Date Time Source
NGTA Decoded METAR 2024/05/28 22:00 UTC NOAA

Tarawa, Kiribati (NGTA) 01-21N 172-55E 4M
May 28, 2024 - 06:00 PM EDT / 2024.05.28 2200 UTC
Wind: from the E (080 degrees) at 8 MPH (7 KT):0
Visibility: greater than 7 mile(s):0
Sky conditions: mostly clear
Temperature: 87 F (31 C)
Heat index: 97.5 F (36.4 C):1
Dew Point: 77 F (25 C)
Relative Humidity: 70%
Pressure (altimeter): 29.83 in. Hg (1010 hPa)
ob: NGTA 282200Z 08007KT 9999 FEW020 31/25 Q1010
cycle: 22

Station Type Date Time Source
NGTA TAF 2024/05/28 18:03 UTC NOAA